Alcova, Wyoming
Current Conditions -  °F | °C
As of 10:53 PM on Friday 19 Dec 2014 (Local Time) from KCPR Reporting Station
Clear Clear  
Wind Chill: 17°   Ceiling: Unl
Heat Index: 30°   Visibility: 10mi
Dew Point: 21°   Wind: 21mph
Humidity: 69%   Direction: 220°SW
Pressure: 29.98"   Gusts: NA
Location:  42.55°N, 106.72°W
Report Text: KCPR 200553Z AUTO 22018KT 10SM CLR M01/M06 A2998 RMK AO2 PK WND 21026/0454 SLP174 T10111061 10000 21017 53001
Loading
Personal Weather Stations






























Interactive Weather Map New forecast layout! Learn more

10-Day Weather Forecast

Advertisements
Track Severe Weather on mobile